Chesterfield, Canada
Current Conditions -  °F | °C
As of 7:00 PM on Monday 26 Jan 2015 (Local Time) from CYRT Reporting Station
Light Snow Light Snow  
Wind Chill: -25°   Ceiling: 2000
Heat Index: -6°   Visibility: 15mi
Dew Point: -9°   Wind: 13mph
Humidity: 84%   Direction: 240°WSW
Pressure: 29.59"   Gusts: 18mph
Location:  63.33°N, 90.7°W
Report Text: CYRT 270100Z 24011G16KT 15SM -SN DRSN BKN020 BKN090 M21/M23 A2959 RMK SC5AC2 SLP024
Loading
Personal Weather Stations






























Interactive Weather Map New forecast layout! Learn more

10-Day Weather Forecast

Advertisements
Track Severe Weather on mobile